This is the latest recevied weather packets stored in our database for station/object KD4IZ-13. If no packets are shown the sender has not sent any weather packets the latest 1 day(s).
| Time | Temp. | Humidity | Pressure | Rain* | Wind** | Luminosity | Snow |
|---|---|---|---|---|---|---|---|
| 1778032845 | 22.78° C | 44% | 1011.9 hPa | 0 mm | 2.24 m/s, 239° | 0 W/m² | - |
| 1778032543 | 22.78° C | 44% | 1012 hPa | 0 mm | 2.24 m/s, 176° | 0 W/m² | - |
| 1778032239 | 22.78° C | 44% | 1011.7 hPa | 0 mm | 1.79 m/s, 250° | 0 W/m² | - |
| 1778031937 | 22.78° C | 43% | 1011.9 hPa | 0 mm | 3.13 m/s, 227° | 0 W/m² | - |
| 1778031632 | 22.78° C | 44% | 1011.8 hPa | 0 mm | 1.34 m/s, 271° | 0 W/m² | - |
| 1778031330 | 22.78° C | 44% | 1011.9 hPa | 0 mm | 1.34 m/s, 237° | 0 W/m² | - |
| 1778031026 | 22.78° C | 43% | 1011.8 hPa | 0 mm | 1.79 m/s, 194° | 0 W/m² | - |
| 1778030722 | 22.78° C | 43% | 1011.8 hPa | 0 mm | 2.24 m/s, 167° | 0 W/m² | - |
| 1778030420 | 23.33° C | 42% | 1011.7 hPa | 0 mm | 2.68 m/s, 187° | 0 W/m² | - |
| 1778030128 | 22.78° C | 43% | 1011.5 hPa | 0 mm | 1.79 m/s, 263° | 0 W/m² | - |
| 1778029813 | 22.78° C | 41% | 1011.7 hPa | 0 mm | 1.79 m/s, 171° | 0 W/m² | - |
| 1778029508 | 22.78° C | 42% | 1011.3 hPa | 0 mm | 1.79 m/s, 254° | 0 W/m² | - |
| 1778029204 | 23.33° C | 42% | 1011.3 hPa | 0 mm | 1.79 m/s, 236° | 0 W/m² | - |
| 1778028901 | 23.89° C | 41% | 1011.3 hPa | 0 mm | 1.79 m/s, 202° | 0 W/m² | - |
| 1778028596 | 23.89° C | 40% | 1011.4 hPa | 0 mm | 1.34 m/s, 204° | 0 W/m² | - |
| 1778028294 | 23.89° C | 40% | 1011.1 hPa | 0 mm | 3.13 m/s, 168° | 0 W/m² | - |
| 1778027990 | 23.89° C | 40% | 1011.2 hPa | 0 mm | 2.68 m/s, 201° | 0 W/m² | - |
| 1778027687 | 23.89° C | 40% | 1010.9 hPa | 0 mm | 1.79 m/s, 265° | 0 W/m² | - |
| 1778027383 | 23.89° C | 40% | 1011 hPa | 0 mm | 2.24 m/s, 195° | 0 W/m² | - |
| 1778027079 | 23.89° C | 40% | 1011.1 hPa | 0 mm | 3.58 m/s, 231° | 0 W/m² | - |
| 1778026775 | 23.89° C | 40% | 1010.9 hPa | 0 mm | 2.24 m/s, 273° | 0 W/m² | - |
| 1778026472 | 23.89° C | 41% | 1011.1 hPa | 0 mm | 3.58 m/s, 289° | 0 W/m² | - |
| 1778026169 | 24.44° C | 40% | 1011.2 hPa | 0 mm | 2.68 m/s, 274° | 0 W/m² | - |
| 1778025867 | 24.44° C | 40% | 1011.2 hPa | 0 mm | 3.13 m/s, 163° | 1 W/m² | - |
| 1778025563 | 24.44° C | 40% | 1011 hPa | 0 mm | 2.24 m/s, 261° | 3 W/m² | - |
* Rain latest hour (hover to see other rain measurements)
** Current wind speed in m/s (hover to see current wind gust speed)